sensor_id;sensor_type;location;lat;lon;timestamp;pressure;altitude;pressure_sealevel;temperature;humidity
62847;BME280;49477;35.676;139.586;2023-06-26T00:02:23;101049.26;;;32.60;40.61
62847;BME280;49477;35.676;139.586;2023-06-26T00:04:53;101047.56;;;31.32;40.98
62847;BME280;49477;35.676;139.586;2023-06-26T00:07:22;101049.18;;;32.31;40.32
62847;BME280;49477;35.676;139.586;2023-06-26T00:09:52;101049.04;;;32.02;40.22
62847;BME280;49477;35.676;139.586;2023-06-26T00:12:21;101047.58;;;32.22;40.38
62847;BME280;49477;35.676;139.586;2023-06-26T00:14:49;101045.58;;;32.59;39.99
62847;BME280;49477;35.676;139.586;2023-06-26T00:17:19;101043.80;;;32.14;40.78
62847;BME280;49477;35.676;139.586;2023-06-26T00:19:48;101044.73;;;32.71;40.24
62847;BME280;49477;35.676;139.586;2023-06-26T00:22:18;101046.04;;;32.85;39.94
62847;BME280;49477;35.676;139.586;2023-06-26T00:24:48;101045.01;;;32.07;40.08
62847;BME280;49477;35.676;139.586;2023-06-26T00:27:18;101042.90;;;32.92;39.59
62847;BME280;49477;35.676;139.586;2023-06-26T00:29:47;101040.04;;;32.43;39.80
62847;BME280;49477;35.676;139.586;2023-06-26T00:32:17;101039.84;;;32.81;39.41
62847;BME280;49477;35.676;139.586;2023-06-26T00:34:46;101044.03;;;33.02;39.20
62847;BME280;49477;35.676;139.586;2023-06-26T00:37:15;101045.45;;;33.09;39.41
62847;BME280;49477;35.676;139.586;2023-06-26T00:39:45;101046.21;;;32.67;39.05
62847;BME280;49477;35.676;139.586;2023-06-26T00:42:15;101045.89;;;32.88;38.55
62847;BME280;49477;35.676;139.586;2023-06-26T00:44:44;101042.60;;;33.06;38.27
62847;BME280;49477;35.676;139.586;2023-06-26T00:47:15;101038.17;;;33.33;38.53
62847;BME280;49477;35.676;139.586;2023-06-26T00:49:45;101034.72;;;32.84;38.86
62847;BME280;49477;35.676;139.586;2023-06-26T00:52:14;101042.18;;;33.22;38.71
62847;BME280;49477;35.676;139.586;2023-06-26T00:54:44;101041.35;;;32.82;38.62
62847;BME280;49477;35.676;139.586;2023-06-26T00:57:13;101040.03;;;32.97;38.42
62847;BME280;49477;35.676;139.586;2023-06-26T00:59:42;101034.74;;;33.66;38.18
62847;BME280;49477;35.676;139.586;2023-06-26T01:02:11;101023.00;;;33.23;38.07
62847;BME280;49477;35.676;139.586;2023-06-26T01:04:40;101015.31;;;33.70;37.86
62847;BME280;49477;35.676;139.586;2023-06-26T01:07:10;101011.80;;;33.22;38.01
62847;BME280;49477;35.676;139.586;2023-06-26T01:09:39;101012.38;;;32.94;38.56
62847;BME280;49477;35.676;139.586;2023-06-26T01:12:09;101011.20;;;32.44;39.13
62847;BME280;49477;35.676;139.586;2023-06-26T01:14:38;101006.87;;;32.56;38.86
62847;BME280;49477;35.676;139.586;2023-06-26T01:17:09;101003.70;;;32.89;38.54
62847;BME280;49477;35.676;139.586;2023-06-26T01:19:39;101002.92;;;32.93;38.64
62847;BME280;49477;35.676;139.586;2023-06-26T01:22:16;100995.98;;;33.33;38.04
62847;BME280;49477;35.676;139.586;2023-06-26T01:25:12;100995.94;;;33.25;37.78
62847;BME280;49477;35.676;139.586;2023-06-26T01:27:45;100994.19;;;33.65;37.30
62847;BME280;49477;35.676;139.586;2023-06-26T01:30:16;100993.47;;;33.73;37.06
62847;BME280;49477;35.676;139.586;2023-06-26T01:32:47;100990.18;;;33.36;36.55
62847;BME280;49477;35.676;139.586;2023-06-26T01:35:16;100990.15;;;33.66;36.22
62847;BME280;49477;35.676;139.586;2023-06-26T01:37:47;100989.85;;;33.69;36.05
62847;BME280;49477;35.676;139.586;2023-06-26T01:40:16;100991.33;;;33.69;35.68
62847;BME280;49477;35.676;139.586;2023-06-26T01:42:45;100992.46;;;32.66;36.29
62847;BME280;49477;35.676;139.586;2023-06-26T01:45:23;100991.81;;;33.08;36.03
62847;BME280;49477;35.676;139.586;2023-06-26T01:47:53;100985.79;;;33.25;35.66
62847;BME280;49477;35.676;139.586;2023-06-26T01:50:28;100987.96;;;33.71;35.61
62847;BME280;49477;35.676;139.586;2023-06-26T01:53:04;100990.14;;;33.66;35.98
62847;BME280;49477;35.676;139.586;2023-06-26T01:55:40;100991.15;;;33.53;35.77
62847;BME280;49477;35.676;139.586;2023-06-26T01:58:11;100988.22;;;33.74;35.97
62847;BME280;49477;35.676;139.586;2023-06-26T02:00:42;100981.42;;;33.81;35.54
62847;BME280;49477;35.676;139.586;2023-06-26T02:03:12;100976.00;;;33.79;35.82
62847;BME280;49477;35.676;139.586;2023-06-26T02:05:41;100974.82;;;33.62;36.03
62847;BME280;49477;35.676;139.586;2023-06-26T02:08:14;100976.87;;;34.09;35.72
62847;BME280;49477;35.676;139.586;2023-06-26T02:10:43;100981.16;;;34.21;35.40
62847;BME280;49477;35.676;139.586;2023-06-26T02:13:12;100983.22;;;34.04;35.30
62847;BME280;49477;35.676;139.586;2023-06-26T02:15:41;100985.67;;;34.32;35.27
62847;BME280;49477;35.676;139.586;2023-06-26T02:18:10;100977.99;;;34.10;34.92
62847;BME280;49477;35.676;139.586;2023-06-26T02:20:39;100971.63;;;34.37;35.07
62847;BME280;49477;35.676;139.586;2023-06-26T02:23:09;100971.04;;;34.25;34.93
62847;BME280;49477;35.676;139.586;2023-06-26T02:25:39;100972.44;;;34.10;34.54
62847;BME280;49477;35.676;139.586;2023-06-26T02:28:08;100967.63;;;34.40;34.80
62847;BME280;49477;35.676;139.586;2023-06-26T02:30:37;100965.22;;;34.18;34.90
62847;BME280;49477;35.676;139.586;2023-06-26T02:33:07;100961.50;;;34.09;34.75
62847;BME280;49477;35.676;139.586;2023-06-26T02:35:36;100960.16;;;34.37;34.94
62847;BME280;49477;35.676;139.586;2023-06-26T02:38:05;100959.22;;;34.29;34.97
62847;BME280;49477;35.676;139.586;2023-06-26T02:40:34;100961.74;;;34.43;35.09
62847;BME280;49477;35.676;139.586;2023-06-26T02:43:03;100957.38;;;34.34;34.88
62847;BME280;49477;35.676;139.586;2023-06-26T02:45:32;100952.07;;;34.18;34.34
62847;BME280;49477;35.676;139.586;2023-06-26T02:48:01;100946.22;;;34.19;34.29
62847;BME280;49477;35.676;139.586;2023-06-26T02:50:30;100939.44;;;34.35;34.68
62847;BME280;49477;35.676;139.586;2023-06-26T02:52:59;100934.63;;;33.19;34.30
62847;BME280;49477;35.676;139.586;2023-06-26T02:55:29;100936.40;;;34.40;33.90
62847;BME280;49477;35.676;139.586;2023-06-26T02:57:58;100932.14;;;34.41;34.15
62847;BME280;49477;35.676;139.586;2023-06-26T03:00:28;100933.15;;;34.28;34.26
62847;BME280;49477;35.676;139.586;2023-06-26T03:02:57;100930.27;;;34.41;34.39
62847;BME280;49477;35.676;139.586;2023-06-26T03:05:27;100921.53;;;34.60;34.28
62847;BME280;49477;35.676;139.586;2023-06-26T03:07:56;100916.92;;;34.26;33.99
62847;BME280;49477;35.676;139.586;2023-06-26T03:10:25;100916.33;;;34.47;34.01
62847;BME280;49477;35.676;139.586;2023-06-26T03:12:54;100914.16;;;34.41;33.92
62847;BME280;49477;35.676;139.586;2023-06-26T03:15:23;100915.83;;;35.02;34.29
62847;BME280;49477;35.676;139.586;2023-06-26T03:17:53;100907.58;;;34.20;33.96
62847;BME280;49477;35.676;139.586;2023-06-26T03:20:22;100901.16;;;34.51;33.99
62847;BME280;49477;35.676;139.586;2023-06-26T03:22:51;100900.07;;;34.24;34.32
62847;BME280;49477;35.676;139.586;2023-06-26T03:25:21;100901.28;;;34.65;34.63
62847;BME280;49477;35.676;139.586;2023-06-26T03:27:50;100893.69;;;34.86;34.46
62847;BME280;49477;35.676;139.586;2023-06-26T03:30:19;100883.45;;;34.94;34.18
62847;BME280;49477;35.676;139.586;2023-06-26T03:32:48;100874.87;;;34.64;33.78
62847;BME280;49477;35.676;139.586;2023-06-26T03:35:18;100871.06;;;35.23;33.99
62847;BME280;49477;35.676;139.586;2023-06-26T03:37:48;100876.48;;;34.87;33.89
62847;BME280;49477;35.676;139.586;2023-06-26T03:40:17;100871.99;;;34.92;33.00
62847;BME280;49477;35.676;139.586;2023-06-26T03:42:47;100869.08;;;34.65;32.91
62847;BME280;49477;35.676;139.586;2023-06-26T03:45:16;100867.59;;;34.77;33.40
62847;BME280;49477;35.676;139.586;2023-06-26T03:47:46;100865.70;;;34.96;33.36
62847;BME280;49477;35.676;139.586;2023-06-26T03:50:15;100867.83;;;34.99;33.73
62847;BME280;49477;35.676;139.586;2023-06-26T03:52:45;100871.69;;;34.83;33.23
62847;BME280;49477;35.676;139.586;2023-06-26T03:55:15;100867.06;;;35.10;33.30
62847;BME280;49477;35.676;139.586;2023-06-26T03:57:44;100870.15;;;35.05;33.56
62847;BME280;49477;35.676;139.586;2023-06-26T04:00:14;100869.61;;;35.21;34.15
62847;BME280;49477;35.676;139.586;2023-06-26T04:02:44;100869.20;;;35.29;34.14
62847;BME280;49477;35.676;139.586;2023-06-26T04:05:13;100861.95;;;34.99;33.89
62847;BME280;49477;35.676;139.586;2023-06-26T04:07:42;100859.23;;;35.38;33.28
62847;BME280;49477;35.676;139.586;2023-06-26T04:10:11;100859.93;;;35.33;33.41
62847;BME280;49477;35.676;139.586;2023-06-26T04:12:41;100853.61;;;35.43;34.05
62847;BME280;49477;35.676;139.586;2023-06-26T04:15:11;100854.94;;;35.30;33.40
62847;BME280;49477;35.676;139.586;2023-06-26T04:17:40;100853.70;;;35.23;32.52
62847;BME280;49477;35.676;139.586;2023-06-26T04:20:10;100852.58;;;35.28;32.36
62847;BME280;49477;35.676;139.586;2023-06-26T04:22:39;100850.13;;;35.49;32.29
62847;BME280;49477;35.676;139.586;2023-06-26T04:25:09;100855.13;;;35.42;32.40
62847;BME280;49477;35.676;139.586;2023-06-26T04:27:38;100860.48;;;35.04;32.76
62847;BME280;49477;35.676;139.586;2023-06-26T04:30:09;100863.75;;;35.24;33.36
62847;BME280;49477;35.676;139.586;2023-06-26T04:32:38;100866.51;;;35.59;33.38
62847;BME280;49477;35.676;139.586;2023-06-26T04:35:08;100863.83;;;35.53;33.09
62847;BME280;49477;35.676;139.586;2023-06-26T04:37:37;100861.57;;;35.74;32.32
62847;BME280;49477;35.676;139.586;2023-06-26T04:40:08;100863.33;;;35.58;32.58
62847;BME280;49477;35.676;139.586;2023-06-26T04:42:37;100853.71;;;35.53;32.62
62847;BME280;49477;35.676;139.586;2023-06-26T04:45:08;100854.25;;;35.48;32.52
62847;BME280;49477;35.676;139.586;2023-06-26T04:47:37;100854.28;;;35.81;32.46
62847;BME280;49477;35.676;139.586;2023-06-26T04:50:07;100850.71;;;35.27;32.83
62847;BME280;49477;35.676;139.586;2023-06-26T04:52:36;100852.37;;;35.47;33.33
62847;BME280;49477;35.676;139.586;2023-06-26T04:55:06;100851.59;;;35.77;32.50
62847;BME280;49477;35.676;139.586;2023-06-26T04:57:35;100848.84;;;35.71;32.98
62847;BME280;49477;35.676;139.586;2023-06-26T05:00:05;100844.93;;;35.37;32.67
62847;BME280;49477;35.676;139.586;2023-06-26T05:02:35;100844.19;;;35.47;32.53
62847;BME280;49477;35.676;139.586;2023-06-26T05:05:04;100840.38;;;35.85;32.08
62847;BME280;49477;35.676;139.586;2023-06-26T05:07:33;100843.88;;;35.48;32.51
62847;BME280;49477;35.676;139.586;2023-06-26T05:10:02;100847.35;;;35.61;32.62
62847;BME280;49477;35.676;139.586;2023-06-26T05:12:31;100850.23;;;35.57;32.19
62847;BME280;49477;35.676;139.586;2023-06-26T05:15:01;100847.59;;;35.79;32.10
62847;BME280;49477;35.676;139.586;2023-06-26T05:17:30;100850.00;;;35.59;32.29
62847;BME280;49477;35.676;139.586;2023-06-26T05:19:59;100845.26;;;35.38;32.13
62847;BME280;49477;35.676;139.586;2023-06-26T05:22:29;100839.35;;;35.82;31.63
62847;BME280;49477;35.676;139.586;2023-06-26T05:25:00;100836.92;;;35.81;31.40
62847;BME280;49477;35.676;139.586;2023-06-26T05:27:29;100828.73;;;35.66;31.14
62847;BME280;49477;35.676;139.586;2023-06-26T05:29:59;100826.10;;;35.58;31.33
62847;BME280;49477;35.676;139.586;2023-06-26T05:32:30;100830.22;;;35.80;31.65
62847;BME280;49477;35.676;139.586;2023-06-26T05:35:04;100833.09;;;35.69;31.73
62847;BME280;49477;35.676;139.586;2023-06-26T05:37:34;100830.75;;;35.68;32.23
62847;BME280;49477;35.676;139.586;2023-06-26T05:40:04;100831.18;;;35.69;31.61
62847;BME280;49477;35.676;139.586;2023-06-26T05:42:34;100829.27;;;35.66;31.39
62847;BME280;49477;35.676;139.586;2023-06-26T05:45:03;100825.52;;;35.72;31.54
62847;BME280;49477;35.676;139.586;2023-06-26T05:47:32;100826.44;;;35.67;30.97
62847;BME280;49477;35.676;139.586;2023-06-26T05:50:02;100827.96;;;35.82;30.75
62847;BME280;49477;35.676;139.586;2023-06-26T05:52:33;100826.19;;;35.74;31.00
62847;BME280;49477;35.676;139.586;2023-06-26T05:55:02;100821.40;;;35.81;30.68
62847;BME280;49477;35.676;139.586;2023-06-26T05:57:32;100825.84;;;35.90;30.70
62847;BME280;49477;35.676;139.586;2023-06-26T06:00:03;100826.55;;;35.62;30.50
62847;BME280;49477;35.676;139.586;2023-06-26T06:02:33;100822.75;;;35.84;30.54
62847;BME280;49477;35.676;139.586;2023-06-26T06:05:02;100820.52;;;35.84;30.43
62847;BME280;49477;35.676;139.586;2023-06-26T06:07:32;100824.47;;;35.90;31.23
62847;BME280;49477;35.676;139.586;2023-06-26T06:10:03;100828.66;;;36.06;30.98
62847;BME280;49477;35.676;139.586;2023-06-26T06:12:32;100826.53;;;35.66;30.51
62847;BME280;49477;35.676;139.586;2023-06-26T06:15:01;100823.23;;;35.64;30.47
62847;BME280;49477;35.676;139.586;2023-06-26T06:17:30;100825.54;;;35.84;30.51
62847;BME280;49477;35.676;139.586;2023-06-26T06:19:59;100826.95;;;35.83;30.76
62847;BME280;49477;35.676;139.586;2023-06-26T06:22:31;100824.08;;;35.94;31.03
62847;BME280;49477;35.676;139.586;2023-06-26T06:24:59;100821.68;;;35.77;30.67
62847;BME280;49477;35.676;139.586;2023-06-26T06:27:29;100818.29;;;35.80;30.41
62847;BME280;49477;35.676;139.586;2023-06-26T06:29:58;100819.94;;;35.58;30.87
62847;BME280;49477;35.676;139.586;2023-06-26T06:32:27;100824.55;;;36.18;30.87
62847;BME280;49477;35.676;139.586;2023-06-26T06:34:56;100826.28;;;36.09;30.96
62847;BME280;49477;35.676;139.586;2023-06-26T06:37:25;100820.35;;;35.91;30.58
62847;BME280;49477;35.676;139.586;2023-06-26T06:39:55;100816.52;;;35.86;31.80
62847;BME280;49477;35.676;139.586;2023-06-26T06:42:24;100813.66;;;36.07;31.32
62847;BME280;49477;35.676;139.586;2023-06-26T06:44:53;100808.38;;;35.29;31.05
62847;BME280;49477;35.676;139.586;2023-06-26T06:47:22;100807.60;;;35.93;31.31
62847;BME280;49477;35.676;139.586;2023-06-26T06:49:51;100807.44;;;35.51;31.20
62847;BME280;49477;35.676;139.586;2023-06-26T06:52:21;100807.80;;;35.75;31.09
62847;BME280;49477;35.676;139.586;2023-06-26T06:54:54;100807.20;;;35.55;30.92
62847;BME280;49477;35.676;139.586;2023-06-26T06:57:24;100808.26;;;35.78;31.04
62847;BME280;49477;35.676;139.586;2023-06-26T06:59:53;100805.73;;;35.53;31.04
62847;BME280;49477;35.676;139.586;2023-06-26T07:02:21;100808.24;;;36.19;30.99
62847;BME280;49477;35.676;139.586;2023-06-26T07:04:51;100808.18;;;35.95;31.55
62847;BME280;49477;35.676;139.586;2023-06-26T07:07:21;100804.68;;;36.04;31.10
62847;BME280;49477;35.676;139.586;2023-06-26T07:09:50;100804.89;;;35.28;31.24
62847;BME280;49477;35.676;139.586;2023-06-26T07:12:19;100792.61;;;36.05;31.55
62847;BME280;49477;35.676;139.586;2023-06-26T07:14:48;100791.05;;;35.97;30.66
62847;BME280;49477;35.676;139.586;2023-06-26T07:17:17;100791.62;;;35.90;31.24
62847;BME280;49477;35.676;139.586;2023-06-26T07:19:48;100794.49;;;36.17;31.53
62847;BME280;49477;35.676;139.586;2023-06-26T07:22:17;100792.76;;;36.13;31.25
62847;BME280;49477;35.676;139.586;2023-06-26T07:24:46;100795.44;;;35.97;31.22
62847;BME280;49477;35.676;139.586;2023-06-26T07:27:16;100799.58;;;35.68;31.42
62847;BME280;49477;35.676;139.586;2023-06-26T07:29:46;100797.78;;;36.10;31.11
62847;BME280;49477;35.676;139.586;2023-06-26T07:32:15;100796.69;;;35.83;31.41
62847;BME280;49477;35.676;139.586;2023-06-26T07:34:45;100795.10;;;35.76;31.21
62847;BME280;49477;35.676;139.586;2023-06-26T07:37:14;100796.87;;;35.52;31.33
62847;BME280;49477;35.676;139.586;2023-06-26T07:39:44;100793.34;;;35.99;31.28
62847;BME280;49477;35.676;139.586;2023-06-26T07:42:13;100790.26;;;35.72;31.13
62847;BME280;49477;35.676;139.586;2023-06-26T07:44:43;100791.71;;;35.94;31.28
62847;BME280;49477;35.676;139.586;2023-06-26T07:47:12;100796.90;;;35.71;31.12
62847;BME280;49477;35.676;139.586;2023-06-26T07:49:42;100790.93;;;35.72;30.84
62847;BME280;49477;35.676;139.586;2023-06-26T07:52:12;100788.29;;;35.87;30.80
62847;BME280;49477;35.676;139.586;2023-06-26T07:54:42;100787.36;;;36.17;30.96
62847;BME280;49477;35.676;139.586;2023-06-26T07:57:11;100790.51;;;35.79;30.58
62847;BME280;49477;35.676;139.586;2023-06-26T07:59:41;100790.39;;;36.43;30.40
62847;BME280;49477;35.676;139.586;2023-06-26T08:02:10;100792.04;;;35.96;29.89
62847;BME280;49477;35.676;139.586;2023-06-26T08:04:39;100795.30;;;36.52;30.07
62847;BME280;49477;35.676;139.586;2023-06-26T08:07:09;100792.07;;;36.23;29.97
62847;BME280;49477;35.676;139.586;2023-06-26T08:09:38;100801.05;;;36.46;29.95
62847;BME280;49477;35.676;139.586;2023-06-26T08:12:08;100812.13;;;35.88;29.62
62847;BME280;49477;35.676;139.586;2023-06-26T08:14:37;100813.98;;;36.22;29.86
62847;BME280;49477;35.676;139.586;2023-06-26T08:17:06;100818.01;;;35.82;29.79
62847;BME280;49477;35.676;139.586;2023-06-26T08:19:35;100823.88;;;36.05;30.16
62847;BME280;49477;35.676;139.586;2023-06-26T08:22:05;100823.12;;;36.02;30.33
62847;BME280;49477;35.676;139.586;2023-06-26T08:24:34;100818.69;;;35.78;30.57
62847;BME280;49477;35.676;139.586;2023-06-26T08:27:03;100822.27;;;35.87;30.67
62847;BME280;49477;35.676;139.586;2023-06-26T08:29:32;100830.44;;;35.77;30.60
62847;BME280;49477;35.676;139.586;2023-06-26T08:32:00;100835.38;;;35.62;30.69
62847;BME280;49477;35.676;139.586;2023-06-26T08:34:30;100834.09;;;35.69;30.69
62847;BME280;49477;35.676;139.586;2023-06-26T08:36:59;100839.47;;;35.13;30.97
62847;BME280;49477;35.676;139.586;2023-06-26T08:39:29;100840.52;;;35.96;30.66
62847;BME280;49477;35.676;139.586;2023-06-26T08:41:58;100845.79;;;35.37;30.81
62847;BME280;49477;35.676;139.586;2023-06-26T08:44:27;100852.64;;;35.35;30.99
62847;BME280;49477;35.676;139.586;2023-06-26T08:46:57;100851.17;;;34.76;31.55
62847;BME280;49477;35.676;139.586;2023-06-26T08:49:33;100852.33;;;35.06;31.67
62847;BME280;49477;35.676;139.586;2023-06-26T08:52:10;100844.61;;;34.97;31.62
62847;BME280;49477;35.676;139.586;2023-06-26T08:54:46;100846.04;;;35.15;31.41
62847;BME280;49477;35.676;139.586;2023-06-26T08:57:19;100846.18;;;34.98;31.45
62847;BME280;49477;35.676;139.586;2023-06-26T08:59:49;100842.65;;;34.62;31.50
62847;BME280;49477;35.676;139.586;2023-06-26T09:02:19;100843.18;;;34.75;31.87
62847;BME280;49477;35.676;139.586;2023-06-26T09:04:49;100838.70;;;35.36;31.64
62847;BME280;49477;35.676;139.586;2023-06-26T09:07:19;100838.89;;;34.46;32.25
62847;BME280;49477;35.676;139.586;2023-06-26T09:09:48;100837.57;;;34.82;32.08
62847;BME280;49477;35.676;139.586;2023-06-26T09:12:18;100839.15;;;34.68;32.27
62847;BME280;49477;35.676;139.586;2023-06-26T09:14:49;100837.84;;;34.03;32.67
62847;BME280;49477;35.676;139.586;2023-06-26T09:17:24;100833.28;;;34.76;32.71
62847;BME280;49477;35.676;139.586;2023-06-26T09:19:54;100839.56;;;34.22;32.91
62847;BME280;49477;35.676;139.586;2023-06-26T09:22:26;100845.88;;;33.98;33.28
62847;BME280;49477;35.676;139.586;2023-06-26T09:24:56;100843.00;;;34.38;33.01
62847;BME280;49477;35.676;139.586;2023-06-26T09:27:25;100847.31;;;34.56;33.40
62847;BME280;49477;35.676;139.586;2023-06-26T09:29:55;100850.39;;;34.20;33.61
62847;BME280;49477;35.676;139.586;2023-06-26T09:32:26;100850.19;;;34.30;33.60
62847;BME280;49477;35.676;139.586;2023-06-26T09:34:55;100854.79;;;33.73;33.75
62847;BME280;49477;35.676;139.586;2023-06-26T09:37:25;100848.73;;;34.36;33.77
62847;BME280;49477;35.676;139.586;2023-06-26T09:39:54;100849.90;;;33.78;33.90
62847;BME280;49477;35.676;139.586;2023-06-26T09:42:24;100853.36;;;34.11;33.96
62847;BME280;49477;35.676;139.586;2023-06-26T09:44:53;100852.85;;;33.80;33.83
62847;BME280;49477;35.676;139.586;2023-06-26T09:47:23;100853.25;;;34.02;34.26
62847;BME280;49477;35.676;139.586;2023-06-26T09:49:53;100851.31;;;33.37;34.40
62847;BME280;49477;35.676;139.586;2023-06-26T09:52:25;100861.69;;;34.13;34.51
62847;BME280;49477;35.676;139.586;2023-06-26T09:55:09;100870.33;;;34.02;34.52
62847;BME280;49477;35.676;139.586;2023-06-26T09:57:40;100875.72;;;33.20;35.00
62847;BME280;49477;35.676;139.586;2023-06-26T10:00:11;100874.25;;;32.96;35.53
62847;BME280;49477;35.676;139.586;2023-06-26T10:02:40;100871.45;;;33.01;35.89
62847;BME280;49477;35.676;139.586;2023-06-26T10:05:10;100873.24;;;32.05;36.70
62847;BME280;49477;35.676;139.586;2023-06-26T10:07:40;100871.64;;;32.93;36.37
62847;BME280;49477;35.676;139.586;2023-06-26T10:10:10;100876.68;;;32.75;36.33
62847;BME280;49477;35.676;139.586;2023-06-26T10:12:40;100883.26;;;32.47;36.92
62847;BME280;49477;35.676;139.586;2023-06-26T10:15:11;100883.47;;;32.78;36.91
62847;BME280;49477;35.676;139.586;2023-06-26T10:17:48;100885.10;;;32.68;37.01
62847;BME280;49477;35.676;139.586;2023-06-26T10:20:18;100887.93;;;32.72;37.02
62847;BME280;49477;35.676;139.586;2023-06-26T10:22:49;100889.01;;;32.35;37.69
62847;BME280;49477;35.676;139.586;2023-06-26T10:25:20;100891.94;;;32.16;37.92
62847;BME280;49477;35.676;139.586;2023-06-26T10:27:55;100901.62;;;31.58;38.58
62847;BME280;49477;35.676;139.586;2023-06-26T10:30:28;100906.98;;;32.40;38.33
62847;BME280;49477;35.676;139.586;2023-06-26T10:33:01;100908.51;;;32.19;38.34
62847;BME280;49477;35.676;139.586;2023-06-26T10:35:31;100913.62;;;31.97;38.19
62847;BME280;49477;35.676;139.586;2023-06-26T10:38:03;100920.20;;;31.71;38.67
62847;BME280;49477;35.676;139.586;2023-06-26T10:40:42;100922.62;;;32.02;38.56
62847;BME280;49477;35.676;139.586;2023-06-26T10:43:13;100926.41;;;32.27;38.78
62847;BME280;49477;35.676;139.586;2023-06-26T10:45:47;100929.63;;;31.84;38.82
62847;BME280;49477;35.676;139.586;2023-06-26T10:48:17;100934.42;;;31.57;39.16
62847;BME280;49477;35.676;139.586;2023-06-26T10:50:49;100937.49;;;32.13;38.64
62847;BME280;49477;35.676;139.586;2023-06-26T10:53:24;100937.07;;;31.85;39.14
62847;BME280;49477;35.676;139.586;2023-06-26T10:55:58;100936.68;;;31.58;39.59
62847;BME280;49477;35.676;139.586;2023-06-26T10:58:32;100936.76;;;32.24;39.48
62847;BME280;49477;35.676;139.586;2023-06-26T11:01:41;100938.95;;;31.54;40.00
62847;BME280;49477;35.676;139.586;2023-06-26T11:04:18;100947.34;;;31.08;40.79
62847;BME280;49477;35.676;139.586;2023-06-26T11:07:18;100947.19;;;31.69;40.84
62847;BME280;49477;35.676;139.586;2023-06-26T11:10:09;100943.78;;;31.66;40.96
62847;BME280;49477;35.676;139.586;2023-06-26T11:12:40;100944.02;;;31.60;41.21
62847;BME280;49477;35.676;139.586;2023-06-26T11:15:11;100951.06;;;31.60;41.42
62847;BME280;49477;35.676;139.586;2023-06-26T11:17:42;100955.65;;;31.52;41.69
62847;BME280;49477;35.676;139.586;2023-06-26T11:20:14;100959.28;;;31.43;41.57
62847;BME280;49477;35.676;139.586;2023-06-26T11:22:44;100958.08;;;31.57;41.94
62847;BME280;49477;35.676;139.586;2023-06-26T11:25:14;100965.12;;;31.38;42.22
62847;BME280;49477;35.676;139.586;2023-06-26T11:27:44;100966.62;;;31.39;42.20
62847;BME280;49477;35.676;139.586;2023-06-26T11:30:26;100960.02;;;30.82;42.67
62847;BME280;49477;35.676;139.586;2023-06-26T11:33:04;100955.37;;;31.19;42.55
62847;BME280;49477;35.676;139.586;2023-06-26T11:35:33;100959.60;;;31.52;42.43
62847;BME280;49477;35.676;139.586;2023-06-26T11:38:04;100964.66;;;31.10;42.79
62847;BME280;49477;35.676;139.586;2023-06-26T11:40:35;100963.59;;;31.17;42.73
62847;BME280;49477;35.676;139.586;2023-06-26T11:43:05;100971.21;;;31.00;42.87
62847;BME280;49477;35.676;139.586;2023-06-26T11:45:35;100968.75;;;31.04;42.73
62847;BME280;49477;35.676;139.586;2023-06-26T11:48:06;100972.07;;;31.11;42.57
62847;BME280;49477;35.676;139.586;2023-06-26T11:50:38;100972.02;;;31.13;42.90
62847;BME280;49477;35.676;139.586;2023-06-26T11:53:07;100970.16;;;30.86;43.40
62847;BME280;49477;35.676;139.586;2023-06-26T11:55:43;100969.50;;;30.80;43.17
62847;BME280;49477;35.676;139.586;2023-06-26T11:58:12;100973.89;;;31.09;42.68
62847;BME280;49477;35.676;139.586;2023-06-26T12:00:43;100974.21;;;31.09;43.01
62847;BME280;49477;35.676;139.586;2023-06-26T12:03:13;100977.42;;;31.02;43.08
62847;BME280;49477;35.676;139.586;2023-06-26T12:05:43;100978.02;;;31.07;43.62
62847;BME280;49477;35.676;139.586;2023-06-26T12:08:13;100980.05;;;30.54;43.71
62847;BME280;49477;35.676;139.586;2023-06-26T12:10:42;100982.56;;;30.60;43.88
62847;BME280;49477;35.676;139.586;2023-06-26T12:13:12;100981.48;;;31.27;43.26
62847;BME280;49477;35.676;139.586;2023-06-26T12:15:41;100982.62;;;30.94;43.33
62847;BME280;49477;35.676;139.586;2023-06-26T12:18:11;100987.39;;;30.70;43.70
62847;BME280;49477;35.676;139.586;2023-06-26T12:20:42;100990.65;;;30.65;43.76
62847;BME280;49477;35.676;139.586;2023-06-26T12:23:16;100994.64;;;30.17;44.06
62847;BME280;49477;35.676;139.586;2023-06-26T12:25:46;100998.55;;;30.50;43.82
62847;BME280;49477;35.676;139.586;2023-06-26T12:28:20;100996.54;;;30.60;44.04
62847;BME280;49477;35.676;139.586;2023-06-26T12:31:14;100992.51;;;31.22;43.12
62847;BME280;49477;35.676;139.586;2023-06-26T12:33:50;100988.99;;;30.47;43.74
62847;BME280;49477;35.676;139.586;2023-06-26T12:36:20;100982.54;;;31.03;43.00
62847;BME280;49477;35.676;139.586;2023-06-26T12:38:52;100979.55;;;30.67;43.51
62847;BME280;49477;35.676;139.586;2023-06-26T12:41:25;100973.99;;;30.70;43.57
62847;BME280;49477;35.676;139.586;2023-06-26T12:43:57;100972.63;;;30.62;43.25
62847;BME280;49477;35.676;139.586;2023-06-26T12:46:35;100968.68;;;30.58;43.22
62847;BME280;49477;35.676;139.586;2023-06-26T12:49:05;100969.63;;;30.64;43.65